createdAt,value
2023-04-01T00:02:36.536Z,11.10
2023-04-01T00:12:36.679Z,11.02
2023-04-01T00:22:36.744Z,11.00
2023-04-01T00:32:37.072Z,11.04
2023-04-01T00:42:37.533Z,11.11
2023-04-01T00:52:37.534Z,11.18
2023-04-01T01:02:37.729Z,11.23
2023-04-01T01:12:37.556Z,11.26
2023-04-01T01:22:37.614Z,11.31
2023-04-01T01:32:37.937Z,11.30
2023-04-01T01:42:37.816Z,11.22
2023-04-01T01:52:37.944Z,11.11
2023-04-01T02:02:37.863Z,10.99
2023-04-01T02:12:38.212Z,10.89
2023-04-01T02:22:38.755Z,10.78
2023-04-01T02:32:38.811Z,10.67
2023-04-01T02:42:38.674Z,10.55
2023-04-01T02:52:38.729Z,10.45
2023-04-01T03:02:38.795Z,10.37
2023-04-01T03:12:38.973Z,10.28
2023-04-01T03:22:40.266Z,10.22
2023-04-01T03:32:41.072Z,10.19
2023-04-01T03:42:42.166Z,10.19
2023-04-01T03:52:43.163Z,10.23
2023-04-01T04:02:44.852Z,10.28
2023-04-01T04:12:44.923Z,10.33
2023-04-01T04:22:45.326Z,10.36
2023-04-01T04:32:46.225Z,10.39
2023-04-01T04:42:48.423Z,10.42
2023-04-01T04:52:52.622Z,10.45
2023-04-01T05:02:53.100Z,10.47
2023-04-01T05:12:55.765Z,10.47
2023-04-01T05:22:55.955Z,10.45
2023-04-01T05:32:56.201Z,10.44
2023-04-01T05:42:57.498Z,10.43
2023-04-01T05:52:58.434Z,10.43
2023-04-01T06:02:59.035Z,10.45
2023-04-01T06:12:59.196Z,10.47
2023-04-01T06:22:59.679Z,10.50
2023-04-01T06:33:00.293Z,10.54
2023-04-01T06:43:20.655Z,10.59
2023-04-01T06:53:39.660Z,10.73
2023-04-01T07:03:40.306Z,10.86
2023-04-01T07:13:42.255Z,10.92
2023-04-01T07:23:44.052Z,10.98
2023-04-01T07:33:44.830Z,11.04
2023-04-01T07:43:47.189Z,11.12
2023-04-01T07:53:47.148Z,11.24
2023-04-01T08:03:47.324Z,11.37
2023-04-01T08:13:55.959Z,11.46
2023-04-01T08:23:56.679Z,11.53
2023-04-01T08:33:57.405Z,11.61
2023-04-01T08:43:57.277Z,11.79
2023-04-01T08:53:57.722Z,12.02
2023-04-01T09:03:58.392Z,12.18
2023-04-01T09:13:58.438Z,12.18
2023-04-01T09:23:58.313Z,12.16
2023-04-01T09:34:00.117Z,12.23
2023-04-01T09:44:01.377Z,12.29
2023-04-01T09:54:01.596Z,12.27
2023-04-01T10:04:03.523Z,12.21
2023-04-01T10:14:05.520Z,12.17
2023-04-01T10:24:05.523Z,12.25
2023-04-01T10:34:07.280Z,12.48
2023-04-01T10:44:07.623Z,12.67
2023-04-01T10:54:27.796Z,12.78
2023-04-01T11:04:30.208Z,12.84
2023-04-01T11:14:30.614Z,12.86
2023-04-01T11:24:32.297Z,12.90
2023-04-01T11:34:32.643Z,12.95
2023-04-01T11:44:37.250Z,12.96
2023-04-01T11:54:37.425Z,12.97
2023-04-01T12:04:37.841Z,12.92
2023-04-01T12:14:38.498Z,12.89
2023-04-01T12:24:38.410Z,12.97
2023-04-01T12:34:39.510Z,13.20
2023-04-01T12:44:39.579Z,13.37
2023-04-01T12:54:39.433Z,13.46
2023-04-01T13:04:41.542Z,13.51
2023-04-01T13:14:42.113Z,13.46
2023-04-01T13:24:42.501Z,13.35
2023-04-01T13:34:42.508Z,13.15
2023-04-01T13:44:42.635Z,13.25
2023-04-01T13:54:42.477Z,13.73
2023-04-01T14:04:51.639Z,13.94
2023-04-01T14:14:51.534Z,13.82
2023-04-01T14:24:51.570Z,13.68
2023-04-01T14:34:51.658Z,13.50
2023-04-01T14:44:52.070Z,13.34
2023-04-01T14:54:52.716Z,13.30
2023-04-01T15:04:52.769Z,13.37
2023-04-01T15:14:52.747Z,13.65
2023-04-01T15:24:52.604Z,13.95
2023-04-01T15:34:52.667Z,13.93
2023-04-01T15:44:52.825Z,13.78
2023-04-01T15:54:52.693Z,13.68
2023-04-01T16:04:52.732Z,13.53
2023-04-01T16:14:52.839Z,13.25
2023-04-01T16:24:52.776Z,12.91
2023-04-01T16:34:52.813Z,12.57
2023-04-01T16:44:52.794Z,12.29
2023-04-01T16:54:52.873Z,12.10
2023-04-01T17:04:52.833Z,11.97
2023-04-01T17:14:52.846Z,11.88
2023-04-01T17:24:53.159Z,11.79
2023-04-01T17:34:52.821Z,11.72
2023-04-01T17:44:52.987Z,11.63
2023-04-01T17:54:52.971Z,11.54
2023-04-01T18:04:52.930Z,11.47
2023-04-01T18:14:54.029Z,11.41
2023-04-01T18:24:53.932Z,11.36
2023-04-01T18:34:53.907Z,11.32
2023-04-01T18:44:53.904Z,11.29
2023-04-01T18:54:53.947Z,11.25
2023-04-01T19:04:53.999Z,11.21
2023-04-01T19:14:53.972Z,11.16
2023-04-01T19:24:54.099Z,11.09
2023-04-01T19:34:54.041Z,11.02
2023-04-01T19:44:54.065Z,10.96
2023-04-01T19:54:54.050Z,10.92
2023-04-01T20:04:55.121Z,10.91
2023-04-01T20:14:55.329Z,10.91
2023-04-01T20:24:55.141Z,10.88
2023-04-01T20:34:55.325Z,10.86
2023-04-01T20:44:55.037Z,10.86
2023-04-01T20:54:55.059Z,10.88
2023-04-01T21:04:55.745Z,10.88
2023-04-01T21:14:59.205Z,10.85
2023-04-01T21:24:59.187Z,10.82
2023-04-01T21:34:59.408Z,10.81
2023-04-01T21:44:59.223Z,10.82
2023-04-01T21:54:59.168Z,10.87
2023-04-01T22:04:59.853Z,10.92
2023-04-01T22:15:00.156Z,10.96
2023-04-01T22:25:00.281Z,10.94
2023-04-01T22:35:00.243Z,10.85
2023-04-01T22:45:00.815Z,10.68
2023-04-01T22:55:01.209Z,10.49
2023-04-01T23:05:01.857Z,10.30
2023-04-01T23:15:02.260Z,10.14
2023-04-01T23:25:02.413Z,10.02
2023-04-01T23:35:02.344Z,9.92
2023-04-01T23:45:02.291Z,9.81
2023-04-01T23:55:03.325Z,9.73
